TimeEDT,TemperatureF,Dew PointF,Humidity,Sea Level PressureIn,VisibilityMPH,Wind Direction,Wind SpeedMPH,Gust SpeedMPH,PrecipitationIn,Events,Conditions,WindDirDegrees,DateUTC
12:54 AM,73.9,64.9,73,29.94,10.0,SSW,9.2,-,N/A,,Clear,200,2013-06-12 04:54:00
1:54 AM,73.0,64.9,76,29.93,10.0,SSW,8.1,-,N/A,,Clear,200,2013-06-12 05:54:00
2:54 AM,73.0,66.0,79,29.92,10.0,SSW,8.1,-,N/A,,Clear,200,2013-06-12 06:54:00
3:54 AM,73.0,66.0,79,29.92,10.0,SSW,6.9,-,N/A,,Clear,210,2013-06-12 07:54:00
4:54 AM,72.0,66.0,81,29.92,10.0,SSW,6.9,-,N/A,,Clear,200,2013-06-12 08:54:00
5:54 AM,72.0,66.9,84,29.94,10.0,SSW,6.9,-,N/A,,Clear,210,2013-06-12 09:54:00
6:54 AM,72.0,68.0,87,29.95,10.0,SSW,8.1,-,N/A,,Clear,200,2013-06-12 10:54:00
7:54 AM,73.0,69.1,87,29.96,10.0,SW,6.9,-,N/A,,Clear,220,2013-06-12 11:54:00
8:29 AM,77.0,71.6,83,29.99,10.0,SW,5.8,-,N/A,,Partly Cloudy,230,2013-06-12 12:29:00
8:54 AM,79.0,72.0,79,29.96,10.0,WSW,6.9,-,N/A,,Clear,240,2013-06-12 12:54:00
9:54 AM,84.0,72.0,67,29.96,10.0,West,10.4,19.6,N/A,,Clear,260,2013-06-12 13:54:00
10:54 AM,86.0,72.0,63,29.96,10.0,West,11.5,-,N/A,,Clear,260,2013-06-12 14:54:00
11:54 AM,89.1,73.0,59,29.96,10.0,West,10.4,-,N/A,,Clear,260,2013-06-12 15:54:00
12:54 PM,91.0,73.0,55,29.96,10.0,West,10.4,-,N/A,,Clear,260,2013-06-12 16:54:00
1:54 PM,89.1,72.0,57,29.94,10.0,WSW,9.2,-,N/A,,Clear,250,2013-06-12 17:54:00
2:54 PM,90.0,73.0,57,29.92,10.0,SW,11.5,-,N/A,,Clear,230,2013-06-12 18:54:00
3:54 PM,90.0,71.1,54,29.89,10.0,SSW,17.3,21.9,N/A,,Clear,210,2013-06-12 19:54:00
4:54 PM,91.0,72.0,53,29.86,10.0,SSW,13.8,20.7,N/A,,Clear,210,2013-06-12 20:54:00
5:54 PM,91.0,69.1,48,29.84,10.0,SW,15.0,23.0,N/A,,Clear,230,2013-06-12 21:54:00
6:54 PM,89.1,70.0,53,29.81,10.0,SW,16.1,23.0,N/A,,Clear,220,2013-06-12 22:54:00
7:54 PM,86.0,71.1,61,29.82,10.0,SW,11.5,-,N/A,,Clear,220,2013-06-12 23:54:00
8:54 PM,84.0,70.0,63,29.82,10.0,SW,9.2,-,N/A,,Clear,220,2013-06-13 00:54:00
9:54 PM,82.0,70.0,67,29.81,10.0,SSW,10.4,-,N/A,,Clear,210,2013-06-13 01:54:00
10:54 PM,81.0,70.0,69,29.81,10.0,SSW,11.5,-,N/A,,Clear,210,2013-06-13 02:54:00
11:54 PM,82.0,70.0,67,29.81,10.0,SW,12.7,-,N/A,,Overcast,220,2013-06-13 03:54:00